Time;durP1;ratioP1;P1;durP2;ratioP2;P2;SDS_P1;SDS_P2;PMS_P1;PMS_P2;Temp;Humidity;BMP_temperature;BMP_pressure;BME280_temperature;BME280_humidity;BME280_pressure;Samples;Min_cycle;Max_cycle;Signal;HPM_P1;HPM_P2
2022/01/05 00:02:16;;;;;;;1.13;1.03;;;5.10;99.90;;;;;;4974917;28;20215;-72
2022/01/05 00:04:42;;;;;;;1.33;1.23;;;5.10;99.90;;;;;;4974737;28;20546;-72
2022/01/05 00:07:07;;;;;;;1.73;1.00;;;5.10;99.90;;;;;;4975072;28;20719;-72
2022/01/05 00:09:33;;;;;;;2.10;0.70;;;5.10;99.90;;;;;;4958093;28;20234;-71
2022/01/05 00:12:00;;;;;;;1.37;1.00;;;5.20;99.90;;;;;;4974986;28;20210;-72
2022/01/05 00:14:25;;;;;;;0.97;0.97;;;5.10;99.90;;;;;;4973705;28;20655;-71
2022/01/05 00:16:51;;;;;;;0.60;0.60;;;5.20;99.90;;;;;;4973236;28;20469;-71
2022/01/05 00:19:17;;;;;;;0.60;0.60;;;5.20;99.90;;;;;;4974865;28;20213;-71
2022/01/05 00:21:42;;;;;;;0.70;0.60;;;5.20;99.90;;;;;;4973631;28;20220;-71
2022/01/05 00:24:08;;;;;;;0.60;0.60;;;5.20;99.90;;;;;;4975079;28;20221;-71
2022/01/05 00:26:35;;;;;;;0.50;0.50;;;5.20;99.90;;;;;;4972343;28;20248;-71
2022/01/05 00:29:01;;;;;;;0.50;0.50;;;5.20;99.90;;;;;;4974716;28;20422;-71
2022/01/05 00:31:27;;;;;;;0.50;0.50;;;5.20;99.90;;;;;;4974653;28;20986;-71
2022/01/05 00:33:54;;;;;;;0.60;0.50;;;5.20;99.90;;;;;;4974824;28;20466;-71
2022/01/05 00:36:19;;;;;;;0.40;0.40;;;5.20;99.90;;;;;;4974667;28;20257;-71
2022/01/05 00:38:45;;;;;;;1.13;0.43;;;5.20;99.90;;;;;;4974783;28;20418;-71
2022/01/05 00:41:12;;;;;;;0.57;0.50;;;5.10;99.90;;;;;;4974575;28;20676;-70
2022/01/05 00:43:37;;;;;;;0.73;0.50;;;5.10;99.90;;;;;;4974633;28;20463;-71
2022/01/05 00:46:04;;;;;;;0.50;0.50;;;5.10;99.90;;;;;;4974555;28;20429;-71
2022/01/05 00:48:32;;;;;;;1.77;0.47;;;5.10;99.90;;;;;;4974600;28;20595;-71
2022/01/05 00:51:00;;;;;;;0.60;0.40;;;5.10;99.90;;;;;;4974317;28;20449;-71
2022/01/05 00:53:26;;;;;;;0.40;0.40;;;5.10;99.90;;;;;;4974330;28;20888;-71
2022/01/05 00:55:52;;;;;;;0.70;0.50;;;5.10;99.90;;;;;;4974750;28;20471;-72
2022/01/05 00:58:17;;;;;;;2.57;0.40;;;5.00;99.90;;;;;;4973248;28;20644;-71
2022/01/05 05:31:42;;;;;;;1.03;0.80;;;3.30;99.90;;;;;;5512782;23;21018;-76
2022/01/05 05:34:08;;;;;;;0.70;0.70;;;3.10;99.90;;;;;;4964739;28;20406;-77
2022/01/05 05:36:33;;;;;;;0.90;0.90;;;2.90;99.90;;;;;;4971447;28;20208;-77
2022/01/05 05:38:59;;;;;;;0.70;0.70;;;2.80;99.90;;;;;;4969408;28;20188;-77
2022/01/05 05:41:24;;;;;;;2.13;0.80;;;2.70;99.90;;;;;;4959178;28;20564;-76
2022/01/05 05:43:50;;;;;;;0.93;0.80;;;2.60;99.90;;;;;;4970632;28;20710;-76
2022/01/05 05:46:16;;;;;;;1.40;1.10;;;2.40;99.90;;;;;;4959669;28;20233;-77
2022/01/05 05:48:42;;;;;;;1.73;1.63;;;2.30;99.90;;;;;;4963422;28;20186;-77
2022/01/05 05:51:08;;;;;;;1.50;1.40;;;2.30;99.90;;;;;;4955254;28;20456;-77
2022/01/05 05:53:34;;;;;;;1.07;0.93;;;2.30;99.90;;;;;;4962725;28;20439;-77
2022/01/05 05:55:59;;;;;;;1.10;1.00;;;2.30;99.90;;;;;;4970681;28;20689;-77
2022/01/05 05:58:25;;;;;;;1.17;1.10;;;2.30;99.90;;;;;;4973328;28;20243;-78
2022/01/05 06:00:50;;;;;;;0.70;0.70;;;2.30;99.90;;;;;;4966815;28;20214;-76
2022/01/05 06:03:17;;;;;;;1.37;1.20;;;2.30;99.90;;;;;;4972515;28;20184;-75
2022/01/05 06:05:42;;;;;;;1.60;1.13;;;2.40;99.90;;;;;;4970339;28;20270;-76
2022/01/05 06:08:08;;;;;;;1.00;1.00;;;2.40;99.90;;;;;;4972269;28;20497;-74
2022/01/05 06:10:34;;;;;;;1.43;1.33;;;2.40;99.90;;;;;;4970790;28;20709;-75
2022/01/05 06:12:59;;;;;;;1.03;1.00;;;2.60;99.90;;;;;;4970413;28;20528;-76
2022/01/05 06:15:25;;;;;;;1.67;1.10;;;2.60;99.90;;;;;;4971848;28;20179;-74
2022/01/05 06:17:50;;;;;;;1.20;1.20;;;2.70;99.90;;;;;;4968194;28;20221;-75
2022/01/05 06:20:17;;;;;;;3.90;0.93;;;2.80;99.90;;;;;;4972564;28;20173;-75
2022/01/05 06:22:43;;;;;;;1.23;0.93;;;2.80;99.90;;;;;;4968551;28;20202;-75
2022/01/05 06:25:10;;;;;;;1.47;1.37;;;2.90;99.90;;;;;;4971384;28;20518;-74
2022/01/05 06:27:36;;;;;;;1.80;1.53;;;2.90;99.90;;;;;;4970481;28;20539;-74
2022/01/05 06:30:06;;;;;;;1.30;1.20;;;2.90;99.90;;;;;;4972486;28;20423;-74
2022/01/05 06:32:33;;;;;;;1.67;1.57;;;3.00;99.90;;;;;;4968600;28;20500;-74
2022/01/05 06:35:00;;;;;;;1.53;1.20;;;3.00;99.90;;;;;;4972650;28;20507;-74
2022/01/05 06:37:26;;;;;;;2.80;1.10;;;3.00;99.90;;;;;;4970298;28;21037;-74
2022/01/05 06:39:51;;;;;;;2.53;1.40;;;3.00;99.90;;;;;;4972604;28;20482;-74
2022/01/05 06:42:17;;;;;;;1.20;0.97;;;3.00;99.90;;;;;;4970237;28;20200;-74
2022/01/05 06:44:42;;;;;;;2.40;0.90;;;3.00;99.90;;;;;;4967807;28;20657;-74
2022/01/05 06:47:10;;;;;;;0.70;0.70;;;3.10;99.90;;;;;;4963571;28;20205;-75
2022/01/05 06:49:35;;;;;;;2.97;1.43;;;3.10;99.90;;;;;;4972482;28;20177;-75
2022/01/05 06:52:01;;;;;;;1.80;0.90;;;3.00;99.90;;;;;;4972384;28;20870;-74
2022/01/05 06:54:26;;;;;;;2.40;1.27;;;3.00;99.90;;;;;;4969692;28;20196;-75
2022/01/05 06:56:52;;;;;;;1.60;1.10;;;3.00;99.90;;;;;;4972450;28;20306;-75
2022/01/05 06:59:17;;;;;;;1.40;1.30;;;2.90;99.90;;;;;;4970168;28;20187;-74
2022/01/05 07:01:43;;;;;;;2.20;0.80;;;2.90;99.90;;;;;;4970367;28;20306;-74
2022/01/05 07:04:08;;;;;;;1.60;1.50;;;2.90;99.90;;;;;;4970052;28;20685;-74
2022/01/05 07:06:34;;;;;;;4.73;1.00;;;2.90;99.90;;;;;;4970806;28;20219;-75
2022/01/05 07:08:59;;;;;;;1.30;1.03;;;2.90;99.90;;;;;;4970473;28;20674;-73
2022/01/05 07:11:25;;;;;;;0.90;0.90;;;2.90;99.90;;;;;;4972814;28;20200;-75
2022/01/05 07:13:50;;;;;;;0.97;0.93;;;2.90;99.90;;;;;;4970299;28;20190;-75
2022/01/05 07:16:17;;;;;;;1.50;1.37;;;3.00;99.90;;;;;;4965620;28;20227;-74
2022/01/05 07:18:42;;;;;;;0.70;0.70;;;2.90;99.90;;;;;;4972181;28;20182;-74
2022/01/05 07:21:08;;;;;;;0.90;0.80;;;3.00;99.90;;;;;;4973763;28;20479;-74
2022/01/05 07:23:33;;;;;;;1.10;1.00;;;2.90;99.90;;;;;;4975545;28;20201;-74
2022/01/05 07:25:59;;;;;;;1.00;1.00;;;2.90;99.90;;;;;;4971652;28;20183;-74
2022/01/05 07:28:24;;;;;;;1.77;1.10;;;2.90;99.90;;;;;;4975518;28;20648;-75
2022/01/05 07:30:50;;;;;;;1.87;0.83;;;2.90;99.90;;;;;;4968928;28;20265;-74
2022/01/05 07:33:16;;;;;;;0.97;0.87;;;2.90;99.90;;;;;;4975185;28;20200;-74
2022/01/05 07:35:41;;;;;;;1.10;1.10;;;2.90;99.90;;;;;;4973625;28;20192;-74
2022/01/05 07:38:07;;;;;;;2.80;1.00;;;2.90;99.90;;;;;;4973180;28;20665;-74
2022/01/05 07:40:32;;;;;;;3.23;1.40;;;2.80;99.90;;;;;;4973182;28;20641;-75
2022/01/05 07:42:58;;;;;;;1.70;1.23;;;2.90;99.90;;;;;;4975275;28;20217;-74
2022/01/05 07:45:23;;;;;;;2.47;1.17;;;2.90;99.90;;;;;;4968273;28;20197;-74
2022/01/05 07:47:49;;;;;;;4.90;1.67;;;2.90;99.90;;;;;;4949904;28;20226;-74
2022/01/05 07:50:14;;;;;;;2.50;1.50;;;2.80;99.90;;;;;;4975289;28;20234;-75
2022/01/05 07:52:47;;;;;;;4.20;2.13;;;2.80;99.90;;;;;;4972934;28;20255;-74
2022/01/05 07:55:13;;;;;;;2.90;1.47;;;2.80;99.90;;;;;;4975034;28;20229;-74
2022/01/05 07:57:38;;;;;;;4.13;1.67;;;2.70;99.90;;;;;;4971662;28;20540;-74
2022/01/05 08:00:07;;;;;;;4.43;1.97;;;2.70;99.90;;;;;;4975018;28;20890;-74
2022/01/05 08:02:32;;;;;;;5.40;2.60;;;2.70;99.90;;;;;;4972819;28;20587;-75
2022/01/05 08:04:58;;;;;;;2.10;1.80;;;2.60;99.90;;;;;;4974866;28;20472;-74
2022/01/05 08:07:23;;;;;;;4.73;1.83;;;2.60;99.90;;;;;;4972904;28;20236;-75
2022/01/05 08:09:49;;;;;;;2.50;1.60;;;2.60;99.90;;;;;;4971508;28;20246;-75
2022/01/05 08:12:14;;;;;;;2.07;1.97;;;2.50;99.90;;;;;;4972425;28;20294;-74
2022/01/05 08:14:40;;;;;;;2.30;2.10;;;2.50;99.90;;;;;;4973854;28;20192;-75
2022/01/05 08:17:05;;;;;;;2.10;2.00;;;2.50;99.90;;;;;;4966651;28;20712;-74
2022/01/05 08:19:34;;;;;;;2.77;2.57;;;2.40;99.90;;;;;;4967799;28;20663;-74
2022/01/05 08:21:59;;;;;;;6.30;2.53;;;2.40;99.90;;;;;;4963450;28;20256;-74
2022/01/05 08:24:26;;;;;;;10.60;2.90;;;2.40;99.90;;;;;;4964006;28;20478;-75
2022/01/05 08:26:52;;;;;;;2.97;2.30;;;2.40;99.90;;;;;;4964120;28;20177;-75
2022/01/05 08:29:18;;;;;;;3.40;1.90;;;2.50;99.90;;;;;;4964528;28;20913;-75
2022/01/05 08:31:43;;;;;;;2.90;2.70;;;2.40;99.90;;;;;;4964847;28;20501;-75
2022/01/05 08:34:10;;;;;;;6.53;1.70;;;2.40;99.90;;;;;;4966496;28;20182;-75
2022/01/05 08:36:36;;;;;;;2.50;1.67;;;2.40;99.90;;;;;;4961973;28;20211;-74
2022/01/05 08:39:02;;;;;;;4.60;2.07;;;2.40;99.90;;;;;;4965628;28;20445;-73
2022/01/05 08:41:27;;;;;;;5.17;2.23;;;2.40;99.90;;;;;;4954817;28;20691;-75
2022/01/05 08:43:54;;;;;;;4.10;1.70;;;2.40;99.90;;;;;;4957014;28;21081;-74
2022/01/05 08:46:20;;;;;;;3.00;1.77;;;2.30;99.90;;;;;;4964306;28;20223;-75
2022/01/05 08:48:45;;;;;;;2.50;2.13;;;2.30;99.90;;;;;;4970753;28;20429;-75
2022/01/05 08:51:11;;;;;;;4.70;2.33;;;2.30;99.90;;;;;;4969964;28;20252;-75
2022/01/05 08:53:37;;;;;;;3.90;1.83;;;2.20;99.90;;;;;;4973888;28;20195;-74
2022/01/05 08:56:02;;;;;;;4.47;2.00;;;2.20;99.90;;;;;;4971798;28;20577;-75
2022/01/05 08:58:28;;;;;;;7.33;2.07;;;2.20;99.90;;;;;;4974008;28;20179;-75
2022/01/05 09:00:54;;;;;;;6.33;1.90;;;2.20;99.90;;;;;;4971061;28;20447;-75
2022/01/05 09:03:19;;;;;;;4.30;2.23;;;2.20;99.90;;;;;;4967941;28;20539;-75
2022/01/05 09:05:45;;;;;;;7.27;2.23;;;2.30;99.90;;;;;;4971821;28;20180;-75
2022/01/05 09:08:11;;;;;;;11.53;1.80;;;2.40;99.90;;;;;;4973659;28;20180;-75
2022/01/05 09:10:38;;;;;;;1.47;1.33;;;2.50;99.90;;;;;;4971652;28;20933;-75
2022/01/05 09:13:04;;;;;;;5.53;1.70;;;2.50;99.90;;;;;;4971360;28;20259;-75
2022/01/05 09:15:32;;;;;;;6.87;2.10;;;2.60;99.90;;;;;;4973712;28;20409;-72
2022/01/05 09:17:57;;;;;;;4.17;1.93;;;2.70;99.90;;;;;;4968403;28;20546;-72
2022/01/05 09:20:23;;;;;;;5.30;1.80;;;2.70;99.90;;;;;;4973143;28;20500;-72
2022/01/05 09:22:48;;;;;;;2.53;1.80;;;2.60;99.90;;;;;;4968929;28;20203;-72
2022/01/05 09:25:18;;;;;;;3.33;2.13;;;2.70;99.90;;;;;;4973252;28;20207;-72
2022/01/05 09:27:44;;;;;;;6.20;2.03;;;3.00;99.90;;;;;;4971123;28;20283;-72
2022/01/05 09:30:12;;;;;;;5.60;1.93;;;3.50;99.90;;;;;;4973042;28;20800;-73
2022/01/05 09:32:39;;;;;;;4.20;2.27;;;3.70;99.90;;;;;;4969048;28;20484;-73
2022/01/05 09:35:06;;;;;;;2.83;1.97;;;3.60;99.90;;;;;;4972785;28;20430;-73
2022/01/05 09:37:36;;;;;;;4.57;1.90;;;3.50;99.90;;;;;;4973041;28;20477;-73
2022/01/05 09:42:46;;;;;;;7.33;3.97;;;3.70;99.90;;;;;;4972950;28;20570;-72
2022/01/05 09:45:17;;;;;;;2.17;1.90;;;3.60;99.90;;;;;;4966915;28;20523;-72
2022/01/05 09:47:51;;;;;;;7.83;1.80;;;3.50;99.90;;;;;;4970929;28;20561;-72
2022/01/05 09:50:18;;;;;;;4.20;1.60;;;3.50;99.90;;;;;;4968948;28;20482;-75
2022/01/05 09:52:45;;;;;;;7.60;1.80;;;3.30;99.90;;;;;;4972606;28;20437;-71
2022/01/05 09:55:13;;;;;;;4.40;1.93;;;3.20;99.90;;;;;;4969939;28;20509;-72
2022/01/05 09:57:40;;;;;;;7.67;1.80;;;3.10;99.90;;;;;;4971735;28;20460;-70
2022/01/05 10:00:08;;;;;;;5.87;1.80;;;3.10;99.90;;;;;;4970522;28;20448;-76
2022/01/05 10:02:34;;;;;;;9.37;2.10;;;3.00;99.90;;;;;;4966361;28;20468;-75
2022/01/05 10:05:01;;;;;;;8.10;2.27;;;2.90;99.90;;;;;;4972257;28;20963;-74
2022/01/05 10:07:26;;;;;;;5.13;1.50;;;2.80;99.90;;;;;;4969262;28;20251;-75
2022/01/05 10:09:52;;;;;;;3.47;1.43;;;2.80;99.90;;;;;;4972755;28;20423;-75
2022/01/05 10:12:20;;;;;;;6.43;1.60;;;2.70;99.90;;;;;;4970360;28;20217;-75
2022/01/05 10:14:47;;;;;;;5.40;1.30;;;2.80;99.90;;;;;;4972559;28;20561;-75
2022/01/05 10:17:28;;;;;;;5.03;1.47;;;2.70;99.90;;;;;;4967839;28;20475;-75
2022/01/05 10:19:59;;;;;;;2.10;1.30;;;2.70;99.90;;;;;;4972034;28;20400;-75
2022/01/05 10:22:32;;;;;;;2.00;1.10;;;2.70;99.90;;;;;;4970607;28;20538;-75
2022/01/05 10:24:58;;;;;;;5.50;1.53;;;2.70;99.90;;;;;;4972250;28;20430;-75
2022/01/05 10:27:25;;;;;;;12.47;2.20;;;3.00;99.90;;;;;;4970516;28;20436;-75
2022/01/05 10:29:59;;;;;;;2.47;1.43;;;3.50;99.90;;;;;;4970573;28;21007;-75
2022/01/05 10:32:29;;;;;;;2.80;1.30;;;4.20;99.90;;;;;;4969864;28;20555;-75
2022/01/05 10:35:16;;;;;;;8.73;1.53;;;4.80;99.90;;;;;;4971547;28;20430;-74
2022/01/05 10:37:44;;;;;;;2.87;1.23;;;5.10;99.90;;;;;;4972263;28;20522;-73
2022/01/05 10:40:22;;;;;;;3.23;1.13;;;5.30;99.90;;;;;;4968156;28;20820;-72
2022/01/05 10:42:51;;;;;;;2.77;1.73;;;5.40;99.90;;;;;;4971209;28;21066;-72
2022/01/05 10:45:40;;;;;;;3.77;1.00;;;5.50;99.90;;;;;;4968292;28;20415;-73
2022/01/05 10:48:08;;;;;;;4.97;1.20;;;5.70;99.90;;;;;;4966600;28;20814;-72
2022/01/05 10:50:35;;;;;;;2.87;1.77;;;5.80;99.90;;;;;;4969000;28;20516;-72
2022/01/05 10:53:02;;;;;;;5.63;1.40;;;5.70;99.90;;;;;;4973472;28;20498;-73
2022/01/05 10:55:31;;;;;;;4.97;1.50;;;5.70;99.90;;;;;;4973952;28;20446;-74
2022/01/05 10:58:00;;;;;;;8.53;1.70;;;5.40;99.90;;;;;;4975965;28;20465;-73
2022/01/05 11:00:53;;;;;;;7.57;1.27;;;5.20;99.90;;;;;;4971726;28;20449;-71
2022/01/05 11:03:35;;;;;;;6.17;1.47;;;5.10;99.90;;;;;;4967774;28;20446;-72
2022/01/05 11:06:13;;;;;;;3.27;1.63;;;5.30;99.90;;;;;;4973871;28;20496;-72
2022/01/05 11:08:57;;;;;;;4.70;1.33;;;5.60;99.90;;;;;;4975660;28;20858;-72
2022/01/05 11:11:44;;;;;;;2.97;1.23;;;6.00;99.90;;;;;;4973459;28;20829;-72
2022/01/05 11:14:12;;;;;;;9.17;1.40;;;5.90;99.90;;;;;;4973444;28;20449;-72
2022/01/05 11:16:40;;;;;;;6.73;1.30;;;5.40;99.90;;;;;;4973340;28;20821;-72
2022/01/05 11:19:20;;;;;;;4.00;1.50;;;5.10;99.90;;;;;;4966100;28;20448;-72
2022/01/05 11:22:05;;;;;;;8.20;1.40;;;5.20;99.90;;;;;;4963510;28;20416;-72
2022/01/05 11:24:40;;;;;;;3.43;1.50;;;5.40;99.90;;;;;;4964092;28;20821;-72
2022/01/05 11:27:08;;;;;;;5.23;1.67;;;5.30;99.90;;;;;;4963941;28;20511;-72
2022/01/05 11:29:35;;;;;;;4.10;1.50;;;5.10;99.90;;;;;;4964468;28;20445;-72
2022/01/05 11:32:06;;;;;;;7.13;1.80;;;4.90;99.90;;;;;;4965335;28;20476;-72
2022/01/05 11:34:32;;;;;;;8.50;1.20;;;4.70;99.90;;;;;;4965687;28;20449;-71
2022/01/05 11:36:58;;;;;;;8.10;1.93;;;4.50;99.90;;;;;;4963345;28;20522;-71
2022/01/05 11:39:25;;;;;;;3.00;1.40;;;4.30;99.90;;;;;;4963896;28;20187;-71
2022/01/05 11:41:52;;;;;;;5.47;1.73;;;4.20;99.90;;;;;;4964064;28;20983;-72
2022/01/05 11:44:19;;;;;;;4.37;1.70;;;4.00;99.90;;;;;;4965069;28;21666;-72
2022/01/05 11:46:46;;;;;;;4.60;1.83;;;3.90;99.90;;;;;;4961886;28;20477;-71
2022/01/05 11:49:14;;;;;;;5.03;1.40;;;3.80;99.90;;;;;;4965262;28;20421;-72
2022/01/05 11:51:42;;;;;;;5.80;1.60;;;3.90;99.90;;;;;;4965004;28;20440;-71
2022/01/05 11:54:30;;;;;;;3.90;1.70;;;4.10;99.90;;;;;;4957406;28;21009;-72
2022/01/05 11:57:17;;;;;;;8.77;2.37;;;4.30;99.90;;;;;;4969851;28;20472;-73
2022/01/05 11:59:44;;;;;;;3.90;1.57;;;4.50;99.90;;;;;;4974058;28;20440;-72
2022/01/05 12:02:14;;;;;;;7.87;1.60;;;4.70;99.90;;;;;;4972811;28;20464;-73
2022/01/05 12:04:57;;;;;;;5.00;1.80;;;4.80;99.90;;;;;;4974462;28;20413;-72
2022/01/05 12:07:48;;;;;;;5.20;1.83;;;5.20;99.90;;;;;;4970594;28;20424;-73
2022/01/05 12:10:23;;;;;;;4.87;1.23;;;5.20;99.90;;;;;;4974711;28;20456;-72
2022/01/05 12:12:55;;;;;;;7.93;1.50;;;5.20;99.90;;;;;;4972094;28;20564;-71
2022/01/05 12:15:38;;;;;;;8.90;1.63;;;5.10;99.90;;;;;;4974756;28;20815;-72
2022/01/05 12:18:04;;;;;;;18.93;2.57;;;4.90;99.90;;;;;;4970177;28;20854;-72
2022/01/05 12:20:34;;;;;;;8.23;1.97;;;4.80;99.90;;;;;;4974299;28;20425;-71
2022/01/05 12:23:13;;;;;;;2.80;1.50;;;4.90;99.90;;;;;;4972205;28;20444;-72
2022/01/05 12:25:59;;;;;;;3.03;1.40;;;5.00;99.90;;;;;;4974387;28;20425;-75
2022/01/05 12:28:32;;;;;;;4.83;1.57;;;5.00;99.90;;;;;;4971984;28;20441;-73
2022/01/05 12:30:58;;;;;;;12.37;2.30;;;4.90;99.90;;;;;;4973634;28;20420;-73
2022/01/05 12:33:25;;;;;;;5.20;1.50;;;4.70;99.90;;;;;;4969994;28;20842;-73
2022/01/05 12:35:57;;;;;;;7.50;1.27;;;4.70;99.90;;;;;;4974466;28;20507;-75
2022/01/05 12:38:47;;;;;;;5.97;1.43;;;4.70;99.90;;;;;;4972951;28;20418;-73
2022/01/05 12:41:42;;;;;;;5.97;1.30;;;4.50;99.90;;;;;;4972139;28;20969;-73
2022/01/05 12:44:19;;;;;;;2.10;1.50;;;4.50;99.90;;;;;;4970745;28;20445;-73
2022/01/05 12:46:49;;;;;;;7.90;1.40;;;4.70;99.90;;;;;;4967630;28;20542;-72
2022/01/05 12:49:22;;;;;;;2.47;1.20;;;4.60;99.90;;;;;;4967363;28;20417;-72
2022/01/05 12:52:01;;;;;;;4.03;1.60;;;4.70;99.90;;;;;;4973854;28;20861;-73
2022/01/05 12:54:52;;;;;;;3.83;1.50;;;4.60;99.90;;;;;;4972699;28;20490;-72
2022/01/05 12:57:26;;;;;;;6.73;1.70;;;4.60;99.90;;;;;;4954749;28;20979;-73
2022/01/05 12:59:52;;;;;;;4.43;1.20;;;4.60;99.90;;;;;;4953716;28;20417;-73
2022/01/05 13:02:22;;;;;;;8.47;1.90;;;4.50;99.90;;;;;;4965469;28;20468;-73
2022/01/05 13:04:48;;;;;;;6.20;1.40;;;4.40;99.90;;;;;;4971769;28;20429;-73
2022/01/05 13:07:14;;;;;;;2.80;1.00;;;4.50;99.90;;;;;;4970808;28;20936;-73
2022/01/05 13:09:55;;;;;;;1.77;1.17;;;4.40;99.90;;;;;;4972376;28;20235;-73
2022/01/05 13:12:25;;;;;;;7.50;1.50;;;4.30;99.90;;;;;;4968350;28;20553;-73
2022/01/05 13:14:56;;;;;;;6.43;1.73;;;4.20;99.90;;;;;;4972145;28;20471;-72
2022/01/05 13:17:28;;;;;;;6.53;1.67;;;4.10;99.90;;;;;;4966967;28;20868;-73
2022/01/05 13:19:58;;;;;;;11.80;1.63;;;4.00;99.90;;;;;;4973574;28;20411;-73
2022/01/05 13:22:27;;;;;;;6.00;1.40;;;3.90;99.90;;;;;;4969421;28;20456;-73
2022/01/05 13:25:30;;;;;;;1.70;1.57;;;4.00;99.90;;;;;;4973378;28;21014;-73
2022/01/05 13:28:00;;;;;;;5.03;1.83;;;3.90;99.90;;;;;;4971743;28;20432;-73
2022/01/05 13:30:31;;;;;;;9.47;1.77;;;3.90;99.90;;;;;;4973404;28;20423;-73
2022/01/05 13:33:02;;;;;;;3.50;1.73;;;3.90;99.90;;;;;;4968475;28;20459;-73
2022/01/05 13:35:37;;;;;;;8.27;1.23;;;3.80;99.90;;;;;;4973332;28;20432;-73
2022/01/05 13:38:07;;;;;;;3.53;1.40;;;3.70;99.90;;;;;;4962189;28;20989;-74
2022/01/05 13:40:35;;;;;;;7.20;1.50;;;3.70;99.90;;;;;;4961608;28;20417;-73
2022/01/05 13:43:02;;;;;;;3.97;1.20;;;3.80;99.90;;;;;;4964158;28;20463;-73
2022/01/05 13:45:45;;;;;;;4.63;1.57;;;3.80;99.90;;;;;;4962224;28;20443;-74
2022/01/05 13:48:26;;;;;;;4.07;1.30;;;3.90;99.90;;;;;;4965237;28;20454;-74
2022/01/05 13:50:57;;;;;;;3.00;1.10;;;4.00;99.90;;;;;;4961477;28;20455;-73
2022/01/05 13:53:28;;;;;;;3.30;1.17;;;4.00;99.90;;;;;;4963637;28;20445;-74
2022/01/05 13:56:18;;;;;;;3.73;1.20;;;4.00;99.90;;;;;;4969735;28;20503;-74
2022/01/05 13:58:47;;;;;;;2.73;1.57;;;3.90;99.90;;;;;;4965860;28;20414;-73
2022/01/05 14:01:20;;;;;;;6.60;2.53;;;3.90;99.90;;;;;;4970311;28;20493;-74
2022/01/05 14:03:51;;;;;;;3.73;1.50;;;3.80;99.90;;;;;;4964447;28;20437;-72
2022/01/05 14:06:21;;;;;;;5.70;1.97;;;3.70;99.90;;;;;;4968757;28;20861;-73
2022/01/05 14:08:55;;;;;;;6.30;1.40;;;3.70;99.90;;;;;;4968594;28;20413;-73
2022/01/05 14:11:20;;;;;;;6.07;1.63;;;3.60;99.90;;;;;;4965102;28;21253;-73
2022/01/05 14:13:55;;;;;;;4.97;1.70;;;3.70;99.90;;;;;;4962989;28;20425;-74
2022/01/05 14:16:41;;;;;;;8.23;2.00;;;3.60;99.90;;;;;;4959214;28;20208;-74
2022/01/05 14:19:25;;;;;;;2.13;1.93;;;3.60;99.90;;;;;;4963608;28;20485;-74
2022/01/05 14:21:51;;;;;;;5.60;2.17;;;3.50;99.90;;;;;;4959978;28;20498;-74
2022/01/05 14:24:28;;;;;;;2.73;1.43;;;3.50;99.90;;;;;;4971464;28;20448;-74
2022/01/05 14:26:54;;;;;;;6.63;2.03;;;3.50;99.90;;;;;;4968259;28;20447;-75
2022/01/05 14:29:24;;;;;;;7.07;2.07;;;3.50;99.90;;;;;;4976175;28;20503;-75
2022/01/05 14:31:50;;;;;;;3.73;1.37;;;3.50;99.90;;;;;;4969657;28;20221;-74
2022/01/05 14:34:22;;;;;;;5.47;1.43;;;3.50;99.90;;;;;;4975678;28;20408;-75
2022/01/05 14:36:53;;;;;;;4.80;1.43;;;3.40;99.90;;;;;;4972649;28;20461;-75
2022/01/05 14:39:21;;;;;;;8.00;1.13;;;3.40;99.90;;;;;;4970508;28;20439;-75
2022/01/05 14:41:58;;;;;;;2.53;1.50;;;3.40;99.90;;;;;;4965905;28;20454;-74
2022/01/05 14:44:25;;;;;;;5.50;1.07;;;3.30;99.90;;;;;;4971600;28;20435;-73
2022/01/05 14:46:56;;;;;;;5.40;1.10;;;3.30;99.90;;;;;;4965806;28;20585;-73
2022/01/05 14:49:21;;;;;;;7.87;1.90;;;3.30;99.90;;;;;;4966784;28;20421;-74
2022/01/05 14:51:49;;;;;;;3.50;0.80;;;3.20;99.90;;;;;;4975343;28;20526;-73
2022/01/05 14:54:15;;;;;;;4.70;1.20;;;3.00;99.90;;;;;;4975021;28;20716;-74
2022/01/05 14:56:42;;;;;;;1.83;0.90;;;3.00;99.90;;;;;;4976159;28;20495;-74
2022/01/05 14:59:09;;;;;;;3.03;0.93;;;3.00;99.90;;;;;;4972156;28;20453;-74
2022/01/05 15:01:37;;;;;;;3.23;0.90;;;3.00;99.90;;;;;;4975913;28;20436;-74
2022/01/05 15:04:02;;;;;;;9.83;1.30;;;3.00;99.90;;;;;;4972159;28;20467;-74
2022/01/05 15:06:30;;;;;;;2.70;1.17;;;3.00;99.90;;;;;;4962193;28;20865;-74
2022/01/05 15:08:55;;;;;;;5.20;1.90;;;2.90;99.90;;;;;;4969963;28;20227;-73
2022/01/05 15:11:21;;;;;;;3.07;1.10;;;2.90;99.90;;;;;;4965832;28;20949;-73
2022/01/05 15:13:46;;;;;;;4.90;1.40;;;3.00;99.90;;;;;;4968401;28;20234;-73
2022/01/05 15:16:12;;;;;;;1.40;1.07;;;2.90;99.90;;;;;;4963462;28;20247;-73
2022/01/05 15:18:38;;;;;;;8.73;1.37;;;2.90;99.90;;;;;;4972997;28;20295;-72
2022/01/05 15:21:04;;;;;;;5.40;1.40;;;2.90;99.90;;;;;;4971649;28;20200;-74
2022/01/05 15:23:30;;;;;;;1.27;1.00;;;3.00;99.90;;;;;;4973188;28;20270;-73
2022/01/05 15:25:55;;;;;;;4.37;1.73;;;2.90;99.90;;;;;;4966738;28;20948;-73
2022/01/05 15:28:22;;;;;;;3.43;1.10;;;2.90;99.90;;;;;;4964281;28;20202;-73
2022/01/05 15:30:48;;;;;;;1.90;0.83;;;2.90;99.90;;;;;;4964989;28;20216;-73
2022/01/05 15:33:14;;;;;;;4.63;1.60;;;2.90;99.90;;;;;;4969177;28;20428;-73
2022/01/05 15:35:40;;;;;;;2.27;1.27;;;2.80;99.90;;;;;;4972892;28;20469;-74
2022/01/05 15:38:06;;;;;;;7.13;1.87;;;2.80;99.90;;;;;;4970450;28;20486;-76
2022/01/05 15:40:33;;;;;;;1.90;0.90;;;2.70;99.90;;;;;;4965077;28;20442;-73
2022/01/05 15:42:58;;;;;;;4.30;2.10;;;2.70;99.90;;;;;;4964978;28;20529;-74
2022/01/05 15:45:24;;;;;;;14.13;2.70;;;2.70;99.90;;;;;;4967169;28;21017;-74
2022/01/05 15:47:50;;;;;;;4.87;2.13;;;2.60;99.90;;;;;;4964035;28;20571;-74
2022/01/05 15:50:16;;;;;;;12.93;3.87;;;2.60;99.90;;;;;;4974764;28;20304;-75
2022/01/05 15:52:41;;;;;;;5.00;1.60;;;2.70;99.90;;;;;;4970790;28;20387;-73
2022/01/05 15:55:13;;;;;;;7.10;2.90;;;2.70;99.90;;;;;;4975049;28;21064;-74
2022/01/05 16:02:51;;;;;;;3.93;1.60;;;2.80;99.90;;;;;;4968880;28;20222;-74
2022/01/05 16:05:17;;;;;;;8.70;2.17;;;2.80;99.90;;;;;;4975109;28;20529;-75
2022/01/05 16:07:43;;;;;;;7.70;3.03;;;2.80;99.90;;;;;;4972943;28;21172;-76
2022/01/05 16:10:09;;;;;;;10.97;2.57;;;2.80;99.90;;;;;;4975167;28;20241;-77
2022/01/05 16:12:35;;;;;;;7.40;2.53;;;2.70;99.90;;;;;;4973064;28;20282;-77
2022/01/05 16:15:00;;;;;;;4.27;2.33;;;2.70;99.90;;;;;;4972724;28;20468;-76
2022/01/05 16:17:27;;;;;;;6.53;1.80;;;2.60;99.90;;;;;;4972895;28;20216;-77
2022/01/05 16:19:53;;;;;;;5.07;2.23;;;2.70;99.90;;;;;;4975142;28;20205;-77
2022/01/05 16:22:20;;;;;;;3.07;2.20;;;2.60;99.90;;;;;;4975650;28;20438;-78
2022/01/05 16:24:46;;;;;;;8.53;2.70;;;2.60;99.90;;;;;;4971080;28;20223;-77
2022/01/05 16:27:12;;;;;;;5.77;2.13;;;2.60;99.90;;;;;;4975145;28;20447;-77
2022/01/05 16:29:37;;;;;;;7.10;3.07;;;2.60;99.90;;;;;;4973450;28;20456;-77
2022/01/05 16:32:04;;;;;;;8.77;2.50;;;2.60;99.90;;;;;;4973510;28;20249;-78
2022/01/05 16:34:32;;;;;;;6.03;2.17;;;2.60;99.90;;;;;;4975015;28;20302;-77
2022/01/05 16:36:57;;;;;;;5.50;2.50;;;2.70;99.90;;;;;;4974276;28;20643;-77
2022/01/05 16:39:23;;;;;;;5.87;2.10;;;2.70;99.90;;;;;;4971436;28;20543;-76
2022/01/05 16:41:49;;;;;;;4.77;1.97;;;2.70;99.90;;;;;;4977247;28;20298;-77
2022/01/05 16:44:15;;;;;;;4.73;1.50;;;2.70;99.90;;;;;;4973709;28;20269;-76
2022/01/05 16:46:41;;;;;;;8.03;1.63;;;2.70;99.90;;;;;;4971841;28;20196;-77
2022/01/05 16:49:09;;;;;;;3.00;1.50;;;2.80;99.90;;;;;;4962841;28;20901;-76
2022/01/05 16:51:36;;;;;;;3.07;1.40;;;2.70;99.90;;;;;;4970696;28;20532;-76
2022/01/05 16:54:02;;;;;;;6.50;1.60;;;2.70;99.90;;;;;;4972765;28;20443;-77
2022/01/05 17:00:24;;;;;;;4.07;1.57;;;2.70;99.90;;;;;;4969718;28;20458;-77
2022/01/05 17:01:57;;;;;;;7.87;1.80;;;2.70;99.90;;;;;;4970821;28;20454;-77
2022/01/05 17:04:23;;;;;;;6.83;1.17;;;2.70;99.90;;;;;;4972481;28;20504;-77
2022/01/05 17:06:49;;;;;;;5.00;1.07;;;2.80;99.90;;;;;;4970102;28;20225;-77
2022/01/05 17:09:14;;;;;;;2.10;1.30;;;2.80;99.90;;;;;;4971431;28;20818;-77
2022/01/05 17:11:41;;;;;;;9.63;1.07;;;2.80;99.90;;;;;;4971420;28;20210;-77
2022/01/05 17:14:07;;;;;;;7.17;1.97;;;2.80;99.90;;;;;;4974166;28;20207;-77
2022/01/05 17:16:33;;;;;;;8.07;1.23;;;2.80;99.90;;;;;;4971958;28;21142;-77
2022/01/05 17:18:59;;;;;;;2.90;1.00;;;2.80;99.90;;;;;;4967678;28;21001;-77
2022/01/05 17:21:24;;;;;;;6.83;1.37;;;2.80;99.90;;;;;;4973495;28;20226;-77
2022/01/05 17:23:51;;;;;;;5.90;1.20;;;2.90;99.90;;;;;;4970953;28;20725;-77
2022/01/05 17:26:17;;;;;;;12.90;1.40;;;2.90;99.90;;;;;;4974103;28;20675;-78
2022/01/05 17:28:43;;;;;;;2.57;1.10;;;2.90;99.90;;;;;;4970183;28;20447;-78
2022/01/05 17:31:09;;;;;;;2.10;0.90;;;2.90;99.90;;;;;;4968261;28;20970;-76
2022/01/05 17:33:35;;;;;;;2.63;1.20;;;2.90;99.90;;;;;;4969228;28;20223;-77
2022/01/05 17:36:01;;;;;;;4.47;1.50;;;3.00;99.90;;;;;;4972771;28;20689;-78
2022/01/05 17:38:27;;;;;;;7.53;2.20;;;3.00;99.90;;;;;;4972872;28;20449;-76
2022/01/05 17:40:53;;;;;;;5.20;1.50;;;2.90;99.90;;;;;;4971812;28;20913;-76
2022/01/05 17:43:19;;;;;;;6.60;1.47;;;2.90;99.90;;;;;;4974007;28;20755;-77
2022/01/05 17:45:44;;;;;;;5.23;1.33;;;2.90;99.90;;;;;;4967911;28;20303;-76
2022/01/05 17:48:10;;;;;;;5.87;1.10;;;2.90;99.90;;;;;;4964248;28;20299;-74